Time;durP1;ratioP1;P1;durP2;ratioP2;P2;SDS_P1;SDS_P2;PMS_P1;PMS_P2;Temp;Humidity;BMP_temperature;BMP_pressure;BME280_temperature;BME280_humidity;BME280_pressure;Samples;Min_cycle;Max_cycle;Signal;HPM_P1;HPM_P2
2023/02/09 07:08:33;;;;;;;;;37.25;32.25;;;;;17.39;39.82;102915.25;5075811;27;45474;-73
2023/02/09 07:11:04;;;;;;;;;28.25;25.50;;;;;17.76;40.37;102917.94;5067376;27;45565;-72
2023/02/09 07:13:30;;;;;;;;;35.75;29.50;;;;;18.29;40.15;102921.56;5065381;28;45399;-71
2023/02/09 07:15:57;;;;;;;;;37.00;31.75;;;;;18.90;40.48;102928.22;5056618;28;45527;-72
2023/02/09 07:18:22;;;;;;;;;31.75;31.00;;;;;19.52;40.29;102927.50;5070612;28;45477;-72
2023/02/09 07:20:59;;;;;;;;;31.00;29.50;;;;;20.11;39.85;102937.56;5066885;28;45451;-72
2023/02/09 07:23:25;;;;;;;;;32.50;29.25;;;;;20.61;40.00;102931.00;5066603;27;45625;-73
2023/02/09 07:25:51;;;;;;;;;29.25;29.25;;;;;21.03;39.94;102931.97;5070822;28;45572;-72
2023/02/09 07:28:19;;;;;;;;;21.25;20.00;;;;;21.39;39.57;102932.38;5068961;28;46487;-74
2023/02/09 07:30:54;;;;;;;;;33.75;31.50;;;;;21.74;38.82;102930.16;5070146;28;45468;-73
2023/02/09 07:33:20;;;;;;;;;27.25;27.25;;;;;22.05;39.34;102931.63;5063750;27;45475;-78
2023/02/09 07:35:47;;;;;;;;;25.50;24.75;;;;;22.33;39.15;102936.97;5063381;27;45477;-77
2023/02/09 07:38:13;;;;;;;;;31.00;30.75;;;;;22.56;38.40;102934.50;5068730;27;46410;-81
2023/02/09 07:40:39;;;;;;;;;32.50;29.25;;;;;22.78;38.56;102936.53;5071887;27;45526;-80
2023/02/09 07:43:05;;;;;;;;;29.00;28.25;;;;;22.97;38.22;102933.34;5062597;27;45549;-78
2023/02/09 07:45:31;;;;;;;;;30.75;29.25;;;;;23.14;37.76;102937.53;5068695;28;45933;-77
2023/02/09 07:47:56;;;;;;;;;35.25;32.75;;;;;23.24;37.47;102931.44;5058452;27;46322;-83
2023/02/09 07:50:21;;;;;;;;;30.75;30.75;;;;;23.36;37.55;102948.66;5063676;27;50422;-79
2023/02/09 07:52:47;;;;;;;;;36.25;31.75;;;;;23.44;37.48;102954.38;5075720;27;45402;-78
2023/02/09 07:55:12;;;;;;;;;32.00;31.50;;;;;23.48;37.21;102955.88;5061059;28;45550;-76
2023/02/09 07:57:37;;;;;;;;;32.75;31.75;;;;;23.54;37.18;102971.69;5071002;27;45953;-80
2023/02/09 08:00:04;;;;;;;;;36.50;34.00;;;;;23.59;36.85;102965.94;5059318;27;45723;-79
2023/02/09 08:02:35;;;;;;;;;35.50;33.00;;;;;23.64;37.06;102961.03;5055000;27;45695;-81
2023/02/09 08:05:01;;;;;;;;;30.75;28.75;;;;;23.67;37.11;102963.50;5067454;27;45557;-81
2023/02/09 08:07:27;;;;;;;;;30.50;27.00;;;;;23.75;36.79;102975.63;5048492;27;46590;-81
2023/02/09 08:09:52;;;;;;;;;33.00;32.00;;;;;23.78;36.70;102978.06;5049556;27;45510;-81
2023/02/09 08:12:58;;;;;;;;;33.00;29.75;;;;;23.87;36.69;102998.22;5087414;27;45449;-78
2023/02/09 08:15:05;;;;;;;;;35.25;31.75;;;;;23.91;36.64;103005.16;5056288;27;45546;-79
2023/02/09 08:17:31;;;;;;;;;33.50;31.25;;;;;23.95;36.50;103003.94;5050942;28;46619;-76
2023/02/09 08:20:03;;;;;;;;;36.25;32.50;;;;;23.97;36.54;103006.50;5050631;28;45475;-76
2023/02/09 08:22:33;;;;;;;;;33.25;32.25;;;;;23.98;36.05;103009.13;5073988;28;45328;-77
2023/02/09 08:25:03;;;;;;;;;31.00;28.75;;;;;24.02;36.21;103007.03;5070581;28;45485;-77
2023/02/09 08:27:29;;;;;;;;;33.75;30.25;;;;;24.05;36.33;103010.41;5055726;28;46414;-78
2023/02/09 08:29:57;;;;;;;;;31.75;30.25;;;;;24.11;36.18;103024.50;5054781;28;45475;-77
2023/02/09 08:32:22;;;;;;;;;33.00;30.25;;;;;24.13;35.94;103028.81;5051854;28;45372;-78
2023/02/09 08:34:47;;;;;;;;;37.50;32.50;;;;;24.17;35.76;103032.16;5049474;28;45510;-78
2023/02/09 08:37:13;;;;;;;;;37.00;31.50;;;;;24.21;35.98;103025.53;5035611;28;46217;-77
2023/02/09 08:39:38;;;;;;;;;33.25;32.25;;;;;24.25;35.79;103024.31;5065132;28;45879;-76
2023/02/09 08:42:03;;;;;;;;;31.75;28.00;;;;;24.28;35.95;103044.91;5043769;28;45518;-85
2023/02/09 08:44:29;;;;;;;;;37.00;30.25;;;;;24.31;36.04;103036.50;5036558;28;45798;-85
2023/02/09 08:46:54;;;;;;;;;36.50;32.75;;;;;24.35;35.66;103048.88;5038166;28;46127;-78
2023/02/09 08:49:19;;;;;;;;;36.25;29.50;;;;;24.38;35.88;103050.47;5052542;28;45530;-76
2023/02/09 08:51:45;;;;;;;;;34.00;29.25;;;;;24.42;35.99;103052.84;5043371;28;45431;-78
2023/02/09 08:54:10;;;;;;;;;35.00;31.75;;;;;24.47;36.19;103052.47;5043409;28;45793;-79
2023/02/09 08:56:35;;;;;;;;;31.50;30.25;;;;;24.48;35.95;103057.78;5037162;28;45570;-79
2023/02/09 08:59:01;;;;;;;;;32.00;31.25;;;;;24.51;35.95;103053.97;5032190;28;45515;-77
2023/02/09 09:01:26;;;;;;;;;34.25;28.25;;;;;24.53;35.73;103060.16;5038491;28;46844;-78
2023/02/09 09:03:51;;;;;;;;;33.00;29.75;;;;;24.55;35.78;103058.19;5047372;28;45831;-77
2023/02/09 09:06:17;;;;;;;;;32.75;30.50;;;;;24.54;35.70;103055.59;5031646;28;46087;-76
2023/02/09 09:08:42;;;;;;;;;33.50;31.00;;;;;24.57;35.88;103068.94;5035387;28;45455;-77
2023/02/09 09:11:11;;;;;;;;;32.25;30.75;;;;;24.58;35.78;103057.97;5050990;28;45543;-75
2023/02/09 09:13:38;;;;;;;;;30.50;30.50;;;;;24.60;35.76;103055.97;5042096;28;45868;-76
2023/02/09 09:16:03;;;;;;;;;36.25;29.00;;;;;24.59;35.88;103054.25;5035944;28;45635;-77
2023/02/09 09:18:29;;;;;;;;;28.00;25.25;;;;;24.62;35.71;103064.00;5047466;28;45506;-87
2023/02/09 09:20:55;;;;;;;;;30.75;29.25;;;;;24.63;35.69;103067.56;5046742;28;45440;-78
2023/02/09 09:23:20;;;;;;;;;34.75;31.25;;;;;24.59;35.89;103056.09;5033796;28;45395;-74
2023/02/09 09:25:46;;;;;;;;;27.25;27.25;;;;;24.59;35.65;103061.53;5053927;28;45487;-76
2023/02/09 09:28:11;;;;;;;;;36.50;32.00;;;;;24.65;35.47;103063.78;5034412;28;45471;-76
2023/02/09 09:30:37;;;;;;;;;33.50;31.75;;;;;24.65;35.33;103065.63;5043059;28;45764;-75
2023/02/09 09:33:03;;;;;;;;;38.25;32.50;;;;;24.68;35.44;103079.81;5041872;28;45439;-74
2023/02/09 09:35:29;;;;;;;;;32.50;29.50;;;;;24.70;35.53;103076.97;5030349;28;45466;-75
2023/02/09 09:37:56;;;;;;;;;29.75;27.75;;;;;24.72;35.54;103072.28;5056405;28;45519;-74
2023/02/09 09:40:34;;;;;;;;;34.50;28.75;;;;;24.76;35.56;103081.06;5050048;28;45403;-77
2023/02/09 09:43:03;;;;;;;;;34.00;32.00;;;;;24.77;35.43;103080.09;5055160;28;45429;-78
2023/02/09 09:45:31;;;;;;;;;36.75;30.25;;;;;24.82;35.78;103086.88;5035481;28;45619;-82
2023/02/09 09:47:57;;;;;;;;;34.25;29.50;;;;;24.84;35.32;103084.94;5035191;28;45425;-80
2023/02/09 09:50:40;;;;;;;;;36.25;31.00;;;;;24.88;35.72;103082.84;5044877;28;45431;-84
2023/02/09 09:53:16;;;;;;;;;36.75;31.25;;;;;24.93;35.41;103086.06;5051521;28;45547;-77
2023/02/09 09:55:43;;;;;;;;;33.25;29.00;;;;;24.94;35.34;103073.34;5039761;28;46149;-79
2023/02/09 09:58:16;;;;;;;;;32.00;31.00;;;;;25.04;35.32;103084.31;5040675;28;45438;-75
2023/02/09 10:00:42;;;;;;;;;31.25;26.50;;;;;25.09;35.37;103090.28;5036007;28;45874;-78
2023/02/09 10:03:20;;;;;;;;;36.25;33.75;;;;;25.15;35.10;103072.59;5043854;28;45499;-77
2023/02/09 10:05:51;;;;;;;;;25.25;24.75;;;;;25.19;35.30;103074.97;5053102;28;46223;-77
2023/02/09 10:08:52;;;;;;;;;34.25;32.00;;;;;25.21;35.31;103072.97;5041074;28;45499;-75
2023/02/09 10:11:27;;;;;;;;;32.25;30.50;;;;;25.23;35.30;103079.19;5047869;28;45565;-75
2023/02/09 10:13:56;;;;;;;;;30.00;29.75;;;;;25.25;35.43;103065.44;5034269;28;45457;-76
2023/02/09 10:16:33;;;;;;;;;30.25;29.50;;;;;25.27;35.24;103071.63;5055485;28;47671;-73
2023/02/09 10:19:19;;;;;;;;;29.00;28.50;;;;;25.31;35.29;103074.97;5037285;28;45445;-80
2023/02/09 10:21:44;;;;;;;;;34.75;31.75;;;;;25.32;35.13;103076.69;5052610;28;45427;-78
2023/02/09 10:24:11;;;;;;;;;32.00;29.25;;;;;25.32;35.26;103073.97;5038399;28;45617;-75
2023/02/09 10:26:37;;;;;;;;;39.00;31.25;;;;;25.29;34.93;103069.63;5045081;28;46218;-76
2023/02/09 10:29:22;;;;;;;;;36.50;31.00;;;;;25.33;34.94;103070.25;5041146;28;45534;-78
2023/02/09 10:31:53;;;;;;;;;28.25;27.25;;;;;25.35;34.91;103082.75;5034471;28;45640;-81
2023/02/09 10:34:23;;;;;;;;;32.00;30.00;;;;;25.36;34.85;103081.75;5047046;28;47144;-82
2023/02/09 10:36:53;;;;;;;;;31.00;28.25;;;;;25.38;34.98;103076.22;5037485;28;46117;-79
2023/02/09 10:39:23;;;;;;;;;30.75;28.50;;;;;25.39;35.41;103076.06;5036091;28;45426;-80
2023/02/09 10:41:51;;;;;;;;;28.00;25.75;;;;;25.38;34.98;103058.03;5043223;28;45643;-79
2023/02/09 10:44:24;;;;;;;;;25.25;25.25;;;;;25.43;35.03;103060.38;5052925;28;45410;-80
2023/02/09 10:47:11;;;;;;;;;29.00;27.25;;;;;25.47;35.07;103075.44;5050474;28;45434;-84
2023/02/09 10:49:38;;;;;;;;;27.00;27.00;;;;;25.50;35.33;103085.22;5049897;28;46006;-81
2023/02/09 10:52:10;;;;;;;;;31.50;30.25;;;;;25.52;34.98;103091.38;5060948;28;45454;-83
2023/02/09 10:54:40;;;;;;;;;31.25;29.50;;;;;25.55;34.95;103080.28;5062624;28;45661;-78
2023/02/09 10:57:20;;;;;;;;;31.00;29.25;;;;;25.55;35.11;103072.13;5046970;28;45451;-75
2023/02/09 10:59:57;;;;;;;;;27.75;26.00;;;;;25.57;34.92;103069.25;5049406;28;45534;-75
2023/02/09 11:02:42;;;;;;;;;27.75;26.50;;;;;25.57;34.81;103067.44;5044152;28;45368;-78
2023/02/09 11:05:19;;;;;;;;;33.25;29.50;;;;;25.60;34.91;103061.75;5054694;28;45442;-74
2023/02/09 11:07:54;;;;;;;;;25.00;24.50;;;;;25.61;34.95;103060.75;5052127;28;46125;-74
2023/02/09 11:10:20;;;;;;;;;28.75;28.75;;;;;25.64;34.71;103054.19;5043370;28;45501;-75
2023/02/09 11:12:46;;;;;;;;;34.75;30.25;;;;;25.63;34.84;103050.59;5041712;28;45321;-77
2023/02/09 11:15:21;;;;;;;;;27.50;25.75;;;;;25.67;34.75;103056.66;5050607;28;45535;-75
2023/02/09 11:17:56;;;;;;;;;26.00;24.75;;;;;25.70;34.80;103059.09;5041036;28;46150;-75
2023/02/09 11:20:34;;;;;;;;;28.25;27.75;;;;;25.73;34.90;103049.81;5051421;28;45413;-76
2023/02/09 11:23:02;;;;;;;;;28.50;28.00;;;;;25.73;34.94;103064.31;5039669;28;45316;-80
2023/02/09 11:25:36;;;;;;;;;29.00;26.75;;;;;25.72;34.81;103056.25;5039468;28;45529;-81
2023/02/09 11:28:26;;;;;;;;;32.25;30.50;;;;;25.72;34.70;103045.38;5033058;28;46016;-81
2023/02/09 11:31:13;;;;;;;;;27.00;25.75;;;;;25.70;34.81;103044.66;5039887;28;45818;-83
2023/02/09 11:33:52;;;;;;;;;29.50;29.50;;;;;25.70;34.59;103040.06;5035776;28;45435;-82
2023/02/09 11:36:41;;;;;;;;;29.50;26.50;;;;;25.73;34.37;103038.94;5040154;28;45493;-81
2023/02/09 11:39:23;;;;;;;;;28.50;28.50;;;;;25.74;34.57;103043.38;5047540;28;46289;-82
2023/02/09 11:44:50;;;;;;;;;35.25;32.75;;;;;25.76;34.36;103053.16;5048349;28;45401;-83
2023/02/09 11:47:27;;;;;;;;;31.00;26.75;;;;;25.75;34.16;103040.53;5034574;28;45590;-80
2023/02/09 11:49:55;;;;;;;;;33.50;27.25;;;;;25.76;34.11;103036.84;5062182;28;46270;-78
2023/02/09 11:52:35;;;;;;;;;30.00;29.50;;;;;25.75;34.24;103024.22;5056857;28;45530;-78
2023/02/09 11:55:07;;;;;;;;;26.50;25.50;;;;;25.74;34.00;103024.34;5076442;27;45427;-76
2023/02/09 11:57:41;;;;;;;;;25.25;24.75;;;;;25.74;34.00;103010.75;5061826;27;45716;-78
2023/02/09 12:00:18;;;;;;;;;32.75;29.75;;;;;25.77;33.97;103007.78;5056908;28;46247;-87
2023/02/09 12:03:06;;;;;;;;;23.75;23.25;;;;;25.79;33.71;103014.81;5056695;28;45539;-78
2023/02/09 12:05:32;;;;;;;;;24.75;24.75;;;;;25.82;33.68;103021.88;5046373;28;45593;-78
2023/02/09 12:08:12;;;;;;;;;26.00;25.00;;;;;25.86;33.75;103026.06;5071389;28;45478;-77
2023/02/09 12:10:46;;;;;;;;;31.00;27.75;;;;;25.91;33.88;103012.06;5076609;27;45386;-76
2023/02/09 12:13:27;;;;;;;;;24.25;24.25;;;;;25.92;33.91;103009.19;5067991;28;45428;-78
2023/02/09 12:16:03;;;;;;;;;27.50;26.25;;;;;25.93;33.87;103012.81;5050841;28;45801;-74
2023/02/09 12:18:32;;;;;;;;;26.00;25.50;;;;;25.91;33.40;103017.50;5020804;28;45451;-78
2023/02/09 12:21:01;;;;;;;;;31.25;27.75;;;;;25.84;33.29;103019.00;5052079;28;46330;-78
2023/02/09 12:23:36;;;;;;;;;26.00;25.25;;;;;25.76;33.55;103028.66;5045276;28;45603;-78
2023/02/09 12:26:10;;;;;;;;;26.75;22.25;;;;;25.72;33.25;103031.78;5049899;28;45451;-78
2023/02/09 12:28:39;;;;;;;;;29.25;26.00;;;;;25.57;33.48;103023.91;5056270;28;45629;-77
2023/02/09 12:31:09;;;;;;;;;29.00;26.25;;;;;25.62;33.40;103038.00;5045142;28;45495;-78
2023/02/09 12:33:59;;;;;;;;;26.75;23.75;;;;;25.59;33.40;103029.22;5042820;28;45603;-77
2023/02/09 12:36:30;;;;;;;;;24.25;23.50;;;;;25.53;33.02;103022.41;5050026;28;45372;-78
2023/02/09 12:38:57;;;;;;;;;27.00;24.50;;;;;25.48;33.34;103025.53;5035481;28;45446;-78
2023/02/09 12:41:30;;;;;;;;;26.00;24.25;;;;;25.39;33.34;103023.56;5036964;28;46243;-78
2023/02/09 12:44:10;;;;;;;;;20.50;20.50;;;;;25.36;33.10;103024.69;5038998;28;45363;-77
2023/02/09 12:46:45;;;;;;;;;23.75;23.75;;;;;25.32;33.25;103017.75;5036121;28;45490;-78
2023/02/09 12:49:10;;;;;;;;;29.25;26.25;;;;;25.30;32.72;103014.28;5045056;28;45542;-77
2023/02/09 12:51:41;;;;;;;;;24.00;22.50;;;;;25.27;33.20;103018.13;5043962;28;45416;-82
2023/02/09 12:54:44;;;;;;;;;30.25;26.50;;;;;25.25;32.90;103014.69;5052481;28;45638;-75
2023/02/09 12:57:16;;;;;;;;;21.50;20.25;;;;;25.26;33.01;103018.28;5049636;28;45493;-77
2023/02/09 13:02:30;;;;;;;;;19.25;18.50;;;;;25.35;33.42;103022.06;5071965;28;45967;-78
2023/02/09 13:05:01;;;;;;;;;22.75;22.75;;;;;25.42;33.34;103006.13;5047980;28;45599;-77
2023/02/09 13:07:50;;;;;;;;;23.50;20.75;;;;;25.48;33.15;103009.22;5055481;28;45409;-87
2023/02/09 13:10:36;;;;;;;;;24.75;23.25;;;;;25.48;32.95;103011.06;5043263;28;45817;-84
2023/02/09 13:13:11;;;;;;;;;23.50;20.75;;;;;25.48;33.05;103022.81;5051779;28;47010;-82
2023/02/09 13:15:58;;;;;;;;;21.75;20.25;;;;;25.45;33.10;103028.47;5055540;28;45516;-83
2023/02/09 13:18:40;;;;;;;;;19.75;19.25;;;;;25.42;32.86;103023.28;5045196;28;45495;-82
2023/02/09 13:21:56;;;;;;;;;21.00;18.50;;;;;25.39;32.67;103032.56;5035626;28;45391;-83
2023/02/09 13:24:33;;;;;;;;;24.50;20.75;;;;;25.38;32.89;103030.84;5015267;28;47173;-83
2023/02/09 13:26:59;;;;;;;;;19.50;19.25;;;;;25.38;32.92;103027.28;5027140;28;45553;-82
2023/02/09 13:29:27;;;;;;;;;21.50;19.25;;;;;25.37;33.14;103036.41;5031150;28;45343;-82
2023/02/09 13:32:08;;;;;;;;;18.75;17.25;;;;;25.38;32.91;103027.28;5033309;28;45373;-82
2023/02/09 13:34:45;;;;;;;;;18.50;18.50;;;;;25.38;33.10;103025.41;5032898;28;46331;-81
2023/02/09 13:37:40;;;;;;;;;21.00;19.75;;;;;25.39;32.75;103024.41;5024379;28;45514;-82
2023/02/09 13:40:25;;;;;;;;;20.50;20.25;;;;;25.38;32.63;103030.84;5029251;28;45546;-81
2023/02/09 13:43:11;;;;;;;;;22.25;19.75;;;;;25.38;32.60;103024.56;5032592;28;45511;-82
2023/02/09 13:45:54;;;;;;;;;20.00;19.25;;;;;25.36;32.95;103021.97;5032065;28;45412;-82
2023/02/09 13:48:23;;;;;;;;;21.75;20.00;;;;;25.35;32.84;103024.78;5028926;28;45548;-79
2023/02/09 13:50:50;;;;;;;;;23.00;22.25;;;;;25.24;32.32;103015.69;5026854;28;45446;-90
2023/02/09 13:53:17;;;;;;;;;20.00;20.00;;;;;25.21;32.65;103025.91;5032260;28;45443;-87
2023/02/09 13:55:45;;;;;;;;;19.00;19.00;;;;;25.03;32.30;103011.97;5049673;28;46607;-83
2023/02/09 13:58:22;;;;;;;;;16.33;16.00;;;;;25.11;32.68;103018.53;5055147;28;45435;-82
2023/02/09 14:00:54;;;;;;;;;20.00;18.50;;;;;25.19;32.76;103033.34;5051685;28;45567;-79
2023/02/09 14:03:24;;;;;;;;;19.75;18.25;;;;;25.23;32.89;103021.22;5071101;28;45398;-83
2023/02/09 14:06:05;;;;;;;;;19.00;19.00;;;;;25.26;32.93;103029.16;5054522;28;45230;-82
2023/02/09 14:08:32;;;;;;;;;22.25;20.75;;;;;25.27;33.12;103023.56;5046614;28;45399;-80
2023/02/09 14:11:01;;;;;;;;;18.00;17.00;;;;;25.30;32.92;103027.03;5055783;27;46463;-77
2023/02/09 14:13:33;;;;;;;;;18.00;16.67;;;;;25.26;32.73;103019.13;5033801;28;45547;-79
2023/02/09 14:16:07;;;;;;;;;19.33;19.33;;;;;25.29;32.87;103022.59;5051419;28;46392;-79
2023/02/09 14:18:44;;;;;;;;;16.00;15.67;;;;;25.29;33.37;103023.44;5043546;28;45546;-86
2023/02/09 14:21:10;;;;;;;;;17.67;16.67;;;;;25.32;32.62;103022.31;5050140;28;45423;-82
2023/02/09 14:23:47;;;;;;;;;16.25;15.00;;;;;25.32;32.63;103016.88;5052941;28;45573;-82
2023/02/09 14:26:12;;;;;;;;;17.33;17.00;;;;;25.32;32.69;103028.63;5034636;28;45494;-82
2023/02/09 14:28:38;;;;;;;;;18.33;15.67;;;;;25.29;32.88;103015.28;5052451;28;45396;-87
2023/02/09 14:31:03;;;;;;;;;14.00;14.00;;;;;25.31;33.30;103020.59;5052477;28;45404;-86
2023/02/09 14:33:35;;;;;;;;;23.67;20.33;;;;;25.30;33.17;103021.59;5037198;28;45510;-78
2023/02/09 14:36:01;;;;;;;;;15.33;14.67;;;;;25.25;32.94;103020.13;5040018;28;46244;-78
2023/02/09 14:38:38;;;;;;;;;18.33;18.00;;;;;25.29;32.98;103025.31;5037107;28;45576;-78
2023/02/09 14:41:27;;;;;;;;;19.67;16.00;;;;;25.32;33.25;103030.47;5045421;28;45469;-80
2023/02/09 14:43:58;;;;;;;;;18.33;15.00;;;;;25.32;33.19;103023.19;5051782;28;45293;-79
2023/02/09 14:46:24;;;;;;;;;18.00;18.00;;;;;25.32;33.27;103016.88;5043835;28;45544;-80
2023/02/09 14:48:50;;;;;;;;;17.67;17.67;;;;;25.30;33.24;103013.44;5051221;28;49109;-78
2023/02/09 14:51:16;;;;;;;;;16.00;15.00;;;;;25.34;33.08;103010.34;5047457;28;45471;-80
2023/02/09 14:53:42;;;;;;;;;19.33;18.67;;;;;25.32;33.18;103015.03;5033530;28;45352;-78
2023/02/09 14:56:30;;;;;;;;;16.33;14.00;;;;;25.35;33.46;103020.25;5060020;28;46250;-78
2023/02/09 14:58:55;;;;;;;;;14.33;14.33;;;;;25.34;33.28;103025.78;5053561;28;45399;-77
2023/02/09 15:01:20;;;;;;;;;15.67;14.33;;;;;25.34;33.31;103026.63;5051907;28;45739;-77
2023/02/09 15:03:46;;;;;;;;;17.67;16.33;;;;;25.34;33.31;103023.06;5054489;28;45519;-78
2023/02/09 15:06:13;;;;;;;;;19.33;16.00;;;;;25.32;33.45;103030.47;5050833;28;45881;-79
2023/02/09 15:08:40;;;;;;;;;15.67;15.33;;;;;25.31;33.06;103035.06;5053628;28;45407;-78
2023/02/09 15:14:02;;;;;;;;;19.33;16.33;;;;;25.31;33.41;103045.06;5074332;28;45425;-81
2023/02/09 15:16:28;;;;;;;;;20.00;17.00;;;;;25.28;33.46;103040.75;5051216;28;46395;-82
2023/02/09 15:18:53;;;;;;;;;16.33;15.67;;;;;25.30;33.17;103048.78;5051738;28;45516;-79
2023/02/09 15:21:19;;;;;;;;;15.00;12.33;;;;;25.29;33.45;103050.63;5052790;28;45839;-78
2023/02/09 15:23:44;;;;;;;;;17.67;15.33;;;;;25.29;33.46;103058.78;5052290;28;45331;-89
2023/02/09 15:26:16;;;;;;;;;17.00;15.33;;;;;25.27;33.32;103064.31;5050822;28;52133;-81
2023/02/09 15:28:42;;;;;;;;;17.67;15.67;;;;;25.24;33.37;103064.59;5054785;28;45407;-81
2023/02/09 15:31:11;;;;;;;;;16.67;16.33;;;;;25.23;33.94;103062.00;5055474;28;45599;-80
2023/02/09 15:33:36;;;;;;;;;16.00;14.00;;;;;25.20;33.71;103062.22;5056652;28;45378;-81
2023/02/09 15:36:03;;;;;;;;;18.67;14.00;;;;;25.21;33.35;103066.66;5055087;28;46185;-89
2023/02/09 15:38:29;;;;;;;;;14.67;12.67;;;;;25.18;33.50;103072.38;5057785;28;45512;-76
2023/02/09 15:49:06;;;;;;;;;16.33;16.00;;;;;25.36;33.46;103078.16;5055585;28;45467;-81
2023/02/09 15:51:35;;;;;;;;;16.67;16.00;;;;;25.39;33.61;103086.09;5046085;28;45527;-78
2023/02/09 15:54:06;;;;;;;;;18.33;16.67;;;;;25.29;33.49;103058.78;5055010;28;45830;-78
2023/02/09 15:56:34;;;;;;;;;18.33;15.67;;;;;25.36;33.69;103076.31;5046759;28;45443;-80
2023/02/09 15:59:02;;;;;;;;;16.67;14.67;;;;;25.37;33.70;103078.03;5042959;28;46559;-79
2023/02/09 16:01:32;;;;;;;;;15.00;15.00;;;;;25.44;33.50;103093.84;5056538;28;45478;-77
2023/02/09 16:03:58;;;;;;;;;14.33;14.00;;;;;25.48;33.74;103092.63;5055661;28;45469;-79
2023/02/09 16:06:24;;;;;;;;;12.00;11.67;;;;;25.51;33.65;103095.94;5045578;28;45454;-79
2023/02/09 16:08:50;;;;;;;;;12.33;12.00;;;;;25.50;33.87;103085.22;5044546;28;45462;-78
2023/02/09 16:11:21;;;;;;;;;15.33;14.00;;;;;25.58;33.66;103092.78;5053315;28;45562;-85
2023/02/09 16:13:47;;;;;;;;;14.33;14.33;;;;;25.57;33.50;103093.75;5048644;28;45889;-83
2023/02/09 16:16:12;;;;;;;;;14.00;13.67;;;;;25.63;33.39;103109.56;5049433;28;46254;-86
2023/02/09 16:18:38;;;;;;;;;15.33;15.00;;;;;25.65;33.52;103111.19;5052335;28;45526;-80
2023/02/09 16:21:05;;;;;;;;;19.00;17.00;;;;;25.68;33.66;103120.94;5077133;28;45383;-82
2023/02/09 16:23:31;;;;;;;;;14.00;12.33;;;;;25.67;33.79;103118.34;5041611;27;45458;-85
2023/02/09 16:25:58;;;;;;;;;16.33;14.00;;;;;25.72;33.25;103129.69;5057024;28;45414;-79
2023/02/09 16:28:24;;;;;;;;;14.67;12.67;;;;;25.77;34.05;103119.31;5042564;28;45439;-90
2023/02/09 16:30:52;;;;;;;;;16.00;15.00;;;;;25.80;33.64;103110.91;5057313;28;45474;-88
2023/02/09 16:33:18;;;;;;;;;15.67;14.00;;;;;25.76;33.63;103113.00;5050648;28;45392;-85
2023/02/09 16:35:49;;;;;;;;;18.00;13.67;;;;;25.87;33.67;103124.88;5036527;28;45470;-82
2023/02/09 16:38:17;;;;;;;;;12.67;12.67;;;;;25.90;33.63;103130.03;5038210;28;45413;-82
2023/02/09 16:40:43;;;;;;;;;14.00;12.67;;;;;25.92;33.35;103130.78;5035952;28;45371;-80
2023/02/09 16:43:10;;;;;;;;;12.33;12.33;;;;;25.93;33.61;103140.66;5051851;28;45430;-77
2023/02/09 16:45:37;;;;;;;;;17.33;16.67;;;;;25.92;33.58;103133.50;5053542;28;45523;-86
2023/02/09 16:48:03;;;;;;;;;18.00;18.00;;;;;25.87;33.62;103138.47;5048435;28;45548;-84
2023/02/09 16:50:32;;;;;;;;;15.33;14.33;;;;;25.76;32.90;103147.50;5044587;28;45540;-85
2023/02/09 16:52:59;;;;;;;;;18.00;17.00;;;;;25.66;32.84;103147.38;5055983;28;45615;-85
2023/02/09 16:55:26;;;;;;;;;23.00;17.33;;;;;25.59;33.06;103146.16;5054913;28;46578;-79
2023/02/09 16:57:53;;;;;;;;;18.00;16.00;;;;;25.52;33.00;103146.63;5047010;28;45481;-79
2023/02/09 17:00:24;;;;;;;;;14.67;14.67;;;;;25.48;33.15;103147.00;5045968;28;45487;-80
2023/02/09 17:02:55;;;;;;;;;17.33;17.00;;;;;25.44;32.96;103150.94;5050704;28;46054;-81
2023/02/09 17:05:26;;;;;;;;;19.33;17.00;;;;;25.42;33.36;103152.94;5048451;28;45664;-76
2023/02/09 17:07:58;;;;;;;;;16.33;15.67;;;;;25.40;32.63;103155.75;5048311;28;45550;-74
2023/02/09 17:10:29;;;;;;;;;19.00;16.67;;;;;25.36;32.88;103152.44;5035808;28;45972;-74
2023/02/09 17:12:56;;;;;;;;;16.33;16.33;;;;;25.37;33.01;103156.88;5047974;28;45864;-75
2023/02/09 17:15:23;;;;;;;;;14.67;13.33;;;;;25.37;32.91;103151.44;5042409;28;45527;-76
2023/02/09 17:17:51;;;;;;;;;19.67;17.00;;;;;25.37;32.73;103154.16;5053223;28;45510;-76
2023/02/09 17:20:20;;;;;;;;;18.00;17.00;;;;;25.37;32.95;103154.16;5055409;28;45684;-75
2023/02/09 17:22:48;;;;;;;;;14.33;13.67;;;;;25.38;32.81;103157.75;5066708;28;45597;-75
2023/02/09 17:25:19;;;;;;;;;16.00;16.00;;;;;25.37;33.06;103166.88;5075052;28;45601;-84
2023/02/09 17:27:44;;;;;;;;;18.00;15.00;;;;;25.36;32.99;103166.03;5043620;28;45554;-79
2023/02/09 17:30:12;;;;;;;;;18.00;16.00;;;;;25.36;32.97;103179.63;5035231;28;45491;-79
2023/02/09 17:32:38;;;;;;;;;18.67;16.67;;;;;25.36;32.97;103174.19;5040800;28;45485;-81
2023/02/09 17:35:12;;;;;;;;;17.67;17.67;;;;;25.37;32.87;103170.47;5054252;28;46253;-78
2023/02/09 17:37:38;;;;;;;;;18.00;15.00;;;;;25.36;32.90;103171.47;5054630;28;45470;-79
2023/02/09 17:40:04;;;;;;;;;20.00;15.67;;;;;25.35;32.67;103168.84;5062097;28;45452;-76
2023/02/09 17:42:29;;;;;;;;;16.33;15.00;;;;;25.38;32.89;103182.22;5059377;28;45466;-79
2023/02/09 17:44:55;;;;;;;;;17.67;17.00;;;;;25.37;32.65;103177.75;5039781;28;46135;-81
2023/02/09 17:47:22;;;;;;;;;18.00;17.00;;;;;25.41;32.95;103178.38;5039937;28;45915;-81
2023/02/09 17:49:47;;;;;;;;;15.67;15.67;;;;;25.43;33.05;103185.44;5045500;28;45492;-79
2023/02/09 17:52:18;;;;;;;;;18.00;16.67;;;;;25.41;32.79;103181.97;5037240;28;45570;-77
2023/02/09 17:54:44;;;;;;;;;16.67;16.67;;;;;25.47;32.95;103196.91;5051298;28;45591;-81
2023/02/09 17:57:15;;;;;;;;;15.67;15.33;;;;;25.44;32.99;103189.00;5055065;28;45628;-78
2023/02/09 17:59:40;;;;;;;;;15.33;15.33;;;;;25.46;33.00;103195.19;5045286;28;45380;-77
2023/02/09 18:02:18;;;;;;;;;13.33;13.33;;;;;25.49;32.96;103190.38;5050784;28;45540;-74
2023/02/09 18:04:44;;;;;;;;;20.00;17.00;;;;;25.50;33.04;103193.97;5041490;28;45594;-74
2023/02/09 18:07:09;;;;;;;;;17.00;15.00;;;;;25.51;32.98;103192.97;5073866;28;45454;-73
2023/02/09 18:09:35;;;;;;;;;16.00;16.00;;;;;25.54;32.80;103192.72;5060041;28;45793;-73
2023/02/09 18:12:05;;;;;;;;;18.00;15.67;;;;;25.55;32.96;103190.88;5054203;28;45487;-73
2023/02/09 18:14:32;;;;;;;;;21.33;18.00;;;;;25.57;32.79;103200.66;5052554;28;45446;-78
2023/02/09 18:16:58;;;;;;;;;23.00;16.25;;;;;25.57;33.01;103195.22;5052668;28;45656;-81
2023/02/09 18:19:24;;;;;;;;;16.67;16.00;;;;;25.58;33.08;103205.09;5044267;28;45421;-80
2023/02/09 18:21:58;;;;;;;;;18.00;17.00;;;;;25.59;32.88;103204.09;5044864;28;45581;-82
2023/02/09 18:24:26;;;;;;;;;18.33;17.67;;;;;25.62;32.99;103211.16;5045378;28;45600;-83
2023/02/09 18:26:52;;;;;;;;;21.33;20.33;;;;;25.62;32.79;103211.16;5034541;28;45582;-83
2023/02/09 18:29:19;;;;;;;;;23.25;22.25;;;;;25.59;33.00;103212.28;5053285;28;45576;-78
2023/02/09 18:31:45;;;;;;;;;23.50;21.00;;;;;25.56;32.93;103215.25;5053145;28;45329;-77
2023/02/09 18:34:11;;;;;;;;;24.33;19.33;;;;;25.53;32.86;103213.63;5038916;28;45474;-77
2023/02/09 18:36:37;;;;;;;;;19.33;19.33;;;;;25.48;32.54;103210.41;5045029;28;45761;-78
2023/02/09 18:39:02;;;;;;;;;17.00;17.00;;;;;25.48;32.76;103215.84;5048828;28;48017;-79
2023/02/09 18:41:27;;;;;;;;;20.50;20.50;;;;;25.48;32.74;103220.41;5043150;28;45528;-79
2023/02/09 18:43:53;;;;;;;;;21.50;20.75;;;;;25.45;32.62;103221.50;5039834;28;46104;-79
2023/02/09 18:46:18;;;;;;;;;19.75;19.50;;;;;25.38;32.71;103215.69;5034083;28;45559;-78
2023/02/09 18:48:46;;;;;;;;;20.33;20.33;;;;;25.32;32.54;103220.75;5044421;28;45505;-78